sensor_id;sensor_type;location;lat;lon;timestamp;P1;durP1;ratioP1;P2;durP2;ratioP2
71475;SDS011;59286;59.274;17.974;2023-04-16T00:02:09;7.60;;;2.90;;
71475;SDS011;59286;59.274;17.974;2023-04-16T00:04:34;15.13;;;3.15;;
71475;SDS011;59286;59.274;17.974;2023-04-16T00:07:00;5.25;;;2.70;;
71475;SDS011;59286;59.274;17.974;2023-04-16T00:09:25;9.68;;;2.83;;
71475;SDS011;59286;59.274;17.974;2023-04-16T00:11:50;6.15;;;2.92;;
71475;SDS011;59286;59.274;17.974;2023-04-16T00:14:16;7.38;;;3.03;;
71475;SDS011;59286;59.274;17.974;2023-04-16T00:16:41;7.60;;;2.97;;
71475;SDS011;59286;59.274;17.974;2023-04-16T00:19:06;7.03;;;2.80;;
71475;SDS011;59286;59.274;17.974;2023-04-16T00:21:31;4.75;;;2.90;;
71475;SDS011;59286;59.274;17.974;2023-04-16T00:23:57;8.40;;;3.13;;
71475;SDS011;59286;59.274;17.974;2023-04-16T00:26:22;7.60;;;3.00;;
71475;SDS011;59286;59.274;17.974;2023-04-16T00:28:47;4.85;;;2.97;;
71475;SDS011;59286;59.274;17.974;2023-04-16T00:31:13;7.88;;;3.15;;
71475;SDS011;59286;59.274;17.974;2023-04-16T00:33:38;6.65;;;2.90;;
71475;SDS011;59286;59.274;17.974;2023-04-16T00:36:03;7.97;;;3.20;;
71475;SDS011;59286;59.274;17.974;2023-04-16T00:38:29;7.38;;;3.40;;
71475;SDS011;59286;59.274;17.974;2023-04-16T00:40:56;10.80;;;3.40;;
71475;SDS011;59286;59.274;17.974;2023-04-16T00:43:23;9.02;;;2.67;;
71475;SDS011;59286;59.274;17.974;2023-04-16T00:45:49;7.63;;;3.25;;
71475;SDS011;59286;59.274;17.974;2023-04-16T00:48:16;9.82;;;3.15;;
71475;SDS011;59286;59.274;17.974;2023-04-16T00:50:42;6.72;;;3.05;;
71475;SDS011;59286;59.274;17.974;2023-04-16T00:53:07;5.55;;;3.47;;
71475;SDS011;59286;59.274;17.974;2023-04-16T00:55:33;10.05;;;3.25;;
71475;SDS011;59286;59.274;17.974;2023-04-16T00:57:59;4.43;;;2.95;;
71475;SDS011;59286;59.274;17.974;2023-04-16T01:00:24;5.97;;;3.30;;
71475;SDS011;59286;59.274;17.974;2023-04-16T01:02:51;7.97;;;3.35;;
71475;SDS011;59286;59.274;17.974;2023-04-16T01:05:17;7.85;;;3.20;;
71475;SDS011;59286;59.274;17.974;2023-04-16T01:07:42;4.80;;;3.00;;
71475;SDS011;59286;59.274;17.974;2023-04-16T01:10:08;10.10;;;3.38;;
71475;SDS011;59286;59.274;17.974;2023-04-16T01:12:33;5.80;;;2.85;;
71475;SDS011;59286;59.274;17.974;2023-04-16T01:14:58;6.47;;;3.92;;
71475;SDS011;59286;59.274;17.974;2023-04-16T01:17:24;9.60;;;3.28;;
71475;SDS011;59286;59.274;17.974;2023-04-16T01:19:50;5.40;;;3.15;;
71475;SDS011;59286;59.274;17.974;2023-04-16T01:22:15;11.00;;;3.38;;
71475;SDS011;59286;59.274;17.974;2023-04-16T01:24:41;7.22;;;3.20;;
71475;SDS011;59286;59.274;17.974;2023-04-16T01:27:06;9.95;;;3.88;;
71475;SDS011;59286;59.274;17.974;2023-04-16T01:29:31;8.35;;;4.45;;
71475;SDS011;59286;59.274;17.974;2023-04-16T01:31:57;6.45;;;4.18;;
71475;SDS011;59286;59.274;17.974;2023-04-16T01:34:22;6.35;;;3.90;;
71475;SDS011;59286;59.274;17.974;2023-04-16T01:36:47;8.05;;;4.25;;
71475;SDS011;59286;59.274;17.974;2023-04-16T01:39:13;8.63;;;4.00;;
71475;SDS011;59286;59.274;17.974;2023-04-16T01:41:41;8.90;;;3.33;;
71475;SDS011;59286;59.274;17.974;2023-04-16T01:44:07;8.38;;;3.65;;
71475;SDS011;59286;59.274;17.974;2023-04-16T01:46:33;10.38;;;4.07;;
71475;SDS011;59286;59.274;17.974;2023-04-16T01:49:02;9.93;;;3.45;;
71475;SDS011;59286;59.274;17.974;2023-04-16T01:51:28;10.05;;;3.72;;
71475;SDS011;59286;59.274;17.974;2023-04-16T01:53:54;6.95;;;3.45;;
71475;SDS011;59286;59.274;17.974;2023-04-16T01:56:19;5.78;;;3.55;;
71475;SDS011;59286;59.274;17.974;2023-04-16T01:58:45;7.82;;;3.55;;
71475;SDS011;59286;59.274;17.974;2023-04-16T02:01:11;7.25;;;3.42;;
71475;SDS011;59286;59.274;17.974;2023-04-16T02:03:37;8.55;;;3.65;;
71475;SDS011;59286;59.274;17.974;2023-04-16T02:06:03;13.65;;;3.80;;
71475;SDS011;59286;59.274;17.974;2023-04-16T02:08:29;6.28;;;3.33;;
71475;SDS011;59286;59.274;17.974;2023-04-16T02:10:54;8.65;;;3.95;;
71475;SDS011;59286;59.274;17.974;2023-04-16T02:13:20;5.35;;;3.50;;
71475;SDS011;59286;59.274;17.974;2023-04-16T02:15:47;10.10;;;4.28;;
71475;SDS011;59286;59.274;17.974;2023-04-16T02:18:13;4.82;;;3.30;;
71475;SDS011;59286;59.274;17.974;2023-04-16T02:20:39;10.50;;;3.78;;
71475;SDS011;59286;59.274;17.974;2023-04-16T02:23:06;4.65;;;3.13;;
71475;SDS011;59286;59.274;17.974;2023-04-16T02:25:31;6.40;;;3.60;;
71475;SDS011;59286;59.274;17.974;2023-04-16T02:27:57;6.03;;;3.40;;
71475;SDS011;59286;59.274;17.974;2023-04-16T02:30:22;6.78;;;3.65;;
71475;SDS011;59286;59.274;17.974;2023-04-16T02:32:48;4.95;;;3.65;;
71475;SDS011;59286;59.274;17.974;2023-04-16T02:35:14;8.55;;;4.13;;
71475;SDS011;59286;59.274;17.974;2023-04-16T02:37:39;11.05;;;4.05;;
71475;SDS011;59286;59.274;17.974;2023-04-16T02:40:05;7.32;;;3.85;;
71475;SDS011;59286;59.274;17.974;2023-04-16T02:42:30;7.70;;;3.55;;
71475;SDS011;59286;59.274;17.974;2023-04-16T02:44:56;8.30;;;3.70;;
71475;SDS011;59286;59.274;17.974;2023-04-16T02:47:21;6.70;;;3.75;;
71475;SDS011;59286;59.274;17.974;2023-04-16T02:49:46;4.30;;;3.55;;
71475;SDS011;59286;59.274;17.974;2023-04-16T02:52:12;6.28;;;3.58;;
71475;SDS011;59286;59.274;17.974;2023-04-16T02:54:37;6.10;;;3.65;;
71475;SDS011;59286;59.274;17.974;2023-04-16T02:57:02;6.63;;;3.47;;
71475;SDS011;59286;59.274;17.974;2023-04-16T02:59:28;5.80;;;3.30;;
71475;SDS011;59286;59.274;17.974;2023-04-16T03:01:53;7.47;;;3.83;;
71475;SDS011;59286;59.274;17.974;2023-04-16T03:04:18;6.78;;;3.60;;
71475;SDS011;59286;59.274;17.974;2023-04-16T03:06:43;6.85;;;3.80;;
71475;SDS011;59286;59.274;17.974;2023-04-16T03:09:09;8.65;;;3.85;;
71475;SDS011;59286;59.274;17.974;2023-04-16T03:11:34;5.75;;;3.63;;
71475;SDS011;59286;59.274;17.974;2023-04-16T03:14:00;7.75;;;3.85;;
71475;SDS011;59286;59.274;17.974;2023-04-16T03:16:25;5.82;;;3.45;;
71475;SDS011;59286;59.274;17.974;2023-04-16T03:18:51;8.30;;;4.13;;
71475;SDS011;59286;59.274;17.974;2023-04-16T03:21:16;4.82;;;3.58;;
71475;SDS011;59286;59.274;17.974;2023-04-16T03:23:41;5.40;;;3.67;;
71475;SDS011;59286;59.274;17.974;2023-04-16T03:26:06;7.25;;;3.97;;
71475;SDS011;59286;59.274;17.974;2023-04-16T03:28:32;6.90;;;3.50;;
71475;SDS011;59286;59.274;17.974;2023-04-16T03:30:57;7.45;;;3.60;;
71475;SDS011;59286;59.274;17.974;2023-04-16T03:33:22;4.82;;;3.47;;
71475;SDS011;59286;59.274;17.974;2023-04-16T03:35:53;7.55;;;3.47;;
71475;SDS011;59286;59.274;17.974;2023-04-16T03:38:20;6.50;;;3.88;;
71475;SDS011;59286;59.274;17.974;2023-04-16T03:40:45;7.68;;;4.03;;
71475;SDS011;59286;59.274;17.974;2023-04-16T03:43:10;9.77;;;4.13;;
71475;SDS011;59286;59.274;17.974;2023-04-16T03:45:35;7.15;;;3.85;;
71475;SDS011;59286;59.274;17.974;2023-04-16T03:48:01;9.60;;;3.90;;
71475;SDS011;59286;59.274;17.974;2023-04-16T03:50:26;5.93;;;4.05;;
71475;SDS011;59286;59.274;17.974;2023-04-16T03:52:51;8.68;;;3.83;;
71475;SDS011;59286;59.274;17.974;2023-04-16T03:55:18;8.35;;;4.10;;
71475;SDS011;59286;59.274;17.974;2023-04-16T03:57:43;5.55;;;4.10;;
71475;SDS011;59286;59.274;17.974;2023-04-16T04:00:08;6.03;;;4.05;;
71475;SDS011;59286;59.274;17.974;2023-04-16T04:02:34;7.68;;;3.65;;
71475;SDS011;59286;59.274;17.974;2023-04-16T04:04:59;6.00;;;3.72;;
71475;SDS011;59286;59.274;17.974;2023-04-16T04:07:25;5.93;;;3.78;;
71475;SDS011;59286;59.274;17.974;2023-04-16T04:09:50;4.70;;;3.28;;
71475;SDS011;59286;59.274;17.974;2023-04-16T04:12:15;6.25;;;4.22;;
71475;SDS011;59286;59.274;17.974;2023-04-16T04:14:41;7.53;;;4.25;;
71475;SDS011;59286;59.274;17.974;2023-04-16T04:17:07;7.93;;;3.70;;
71475;SDS011;59286;59.274;17.974;2023-04-16T04:19:32;6.05;;;3.65;;
71475;SDS011;59286;59.274;17.974;2023-04-16T04:21:58;6.15;;;3.72;;
71475;SDS011;59286;59.274;17.974;2023-04-16T04:24:23;6.72;;;3.75;;
71475;SDS011;59286;59.274;17.974;2023-04-16T04:26:48;7.80;;;3.70;;
71475;SDS011;59286;59.274;17.974;2023-04-16T04:29:14;4.85;;;3.35;;
71475;SDS011;59286;59.274;17.974;2023-04-16T04:31:40;7.85;;;3.42;;
71475;SDS011;59286;59.274;17.974;2023-04-16T04:34:05;5.65;;;3.55;;
71475;SDS011;59286;59.274;17.974;2023-04-16T04:36:30;5.57;;;3.47;;
71475;SDS011;59286;59.274;17.974;2023-04-16T04:38:56;5.60;;;3.60;;
71475;SDS011;59286;59.274;17.974;2023-04-16T04:41:21;5.70;;;3.15;;
71475;SDS011;59286;59.274;17.974;2023-04-16T04:43:46;5.80;;;3.00;;
71475;SDS011;59286;59.274;17.974;2023-04-16T04:46:12;6.65;;;3.80;;
71475;SDS011;59286;59.274;17.974;2023-04-16T04:48:37;7.97;;;3.60;;
71475;SDS011;59286;59.274;17.974;2023-04-16T04:51:02;8.77;;;3.70;;
71475;SDS011;59286;59.274;17.974;2023-04-16T04:53:28;7.80;;;3.28;;
71475;SDS011;59286;59.274;17.974;2023-04-16T04:55:54;5.63;;;3.35;;
71475;SDS011;59286;59.274;17.974;2023-04-16T04:58:19;5.35;;;3.17;;
71475;SDS011;59286;59.274;17.974;2023-04-16T05:00:45;5.70;;;3.28;;
71475;SDS011;59286;59.274;17.974;2023-04-16T05:03:10;7.15;;;3.30;;
71475;SDS011;59286;59.274;17.974;2023-04-16T05:05:37;6.63;;;3.50;;
71475;SDS011;59286;59.274;17.974;2023-04-16T05:08:05;6.60;;;3.13;;
71475;SDS011;59286;59.274;17.974;2023-04-16T05:10:31;7.40;;;3.25;;
71475;SDS011;59286;59.274;17.974;2023-04-16T05:12:56;7.45;;;2.95;;
71475;SDS011;59286;59.274;17.974;2023-04-16T05:15:21;6.38;;;2.90;;
71475;SDS011;59286;59.274;17.974;2023-04-16T05:17:47;8.05;;;2.95;;
71475;SDS011;59286;59.274;17.974;2023-04-16T05:20:12;8.43;;;2.83;;
71475;SDS011;59286;59.274;17.974;2023-04-16T05:22:37;6.18;;;2.97;;
71475;SDS011;59286;59.274;17.974;2023-04-16T05:25:03;5.65;;;2.72;;
71475;SDS011;59286;59.274;17.974;2023-04-16T05:27:29;8.63;;;3.03;;
71475;SDS011;59286;59.274;17.974;2023-04-16T05:29:54;6.20;;;2.70;;
71475;SDS011;59286;59.274;17.974;2023-04-16T05:32:19;5.28;;;2.75;;
71475;SDS011;59286;59.274;17.974;2023-04-16T05:34:45;13.13;;;3.33;;
71475;SDS011;59286;59.274;17.974;2023-04-16T05:37:10;6.28;;;3.10;;
71475;SDS011;59286;59.274;17.974;2023-04-16T05:39:36;6.28;;;2.90;;
71475;SDS011;59286;59.274;17.974;2023-04-16T05:42:01;5.65;;;3.30;;
71475;SDS011;59286;59.274;17.974;2023-04-16T05:44:26;7.03;;;3.25;;
71475;SDS011;59286;59.274;17.974;2023-04-16T05:46:52;6.63;;;2.80;;
71475;SDS011;59286;59.274;17.974;2023-04-16T05:49:17;4.68;;;3.00;;
71475;SDS011;59286;59.274;17.974;2023-04-16T05:51:42;4.63;;;2.97;;
71475;SDS011;59286;59.274;17.974;2023-04-16T05:54:08;5.55;;;2.88;;
71475;SDS011;59286;59.274;17.974;2023-04-16T05:56:33;5.57;;;2.97;;
71475;SDS011;59286;59.274;17.974;2023-04-16T05:58:59;6.32;;;3.05;;
71475;SDS011;59286;59.274;17.974;2023-04-16T06:01:24;6.35;;;3.00;;
71475;SDS011;59286;59.274;17.974;2023-04-16T06:03:49;7.95;;;2.83;;
71475;SDS011;59286;59.274;17.974;2023-04-16T06:06:15;3.90;;;2.40;;
71475;SDS011;59286;59.274;17.974;2023-04-16T06:08:40;6.65;;;2.85;;
71475;SDS011;59286;59.274;17.974;2023-04-16T06:11:05;7.03;;;3.00;;
71475;SDS011;59286;59.274;17.974;2023-04-16T06:13:31;7.10;;;2.38;;
71475;SDS011;59286;59.274;17.974;2023-04-16T06:15:56;5.45;;;2.67;;
71475;SDS011;59286;59.274;17.974;2023-04-16T06:18:21;7.32;;;2.63;;
71475;SDS011;59286;59.274;17.974;2023-04-16T06:20:47;5.43;;;2.53;;
71475;SDS011;59286;59.274;17.974;2023-04-16T06:23:12;7.55;;;2.70;;
71475;SDS011;59286;59.274;17.974;2023-04-16T06:25:38;7.30;;;2.80;;
71475;SDS011;59286;59.274;17.974;2023-04-16T06:28:03;5.78;;;2.58;;
71475;SDS011;59286;59.274;17.974;2023-04-16T06:30:29;5.18;;;2.92;;
71475;SDS011;59286;59.274;17.974;2023-04-16T06:32:54;6.05;;;2.60;;
71475;SDS011;59286;59.274;17.974;2023-04-16T06:35:19;5.20;;;2.67;;
71475;SDS011;59286;59.274;17.974;2023-04-16T06:37:45;6.43;;;2.63;;
71475;SDS011;59286;59.274;17.974;2023-04-16T06:40:11;5.57;;;2.67;;
71475;SDS011;59286;59.274;17.974;2023-04-16T06:42:36;4.75;;;2.30;;
71475;SDS011;59286;59.274;17.974;2023-04-16T06:45:02;3.85;;;2.35;;
71475;SDS011;59286;59.274;17.974;2023-04-16T06:47:27;7.78;;;2.60;;
71475;SDS011;59286;59.274;17.974;2023-04-16T06:49:53;7.35;;;2.95;;
71475;SDS011;59286;59.274;17.974;2023-04-16T06:52:18;6.55;;;2.70;;
71475;SDS011;59286;59.274;17.974;2023-04-16T06:54:43;8.55;;;2.53;;
71475;SDS011;59286;59.274;17.974;2023-04-16T06:57:08;7.50;;;2.63;;
71475;SDS011;59286;59.274;17.974;2023-04-16T06:59:35;6.60;;;2.90;;
71475;SDS011;59286;59.274;17.974;2023-04-16T07:02:00;6.13;;;2.13;;
71475;SDS011;59286;59.274;17.974;2023-04-16T07:04:25;4.78;;;2.67;;
71475;SDS011;59286;59.274;17.974;2023-04-16T07:06:51;11.30;;;2.75;;
71475;SDS011;59286;59.274;17.974;2023-04-16T07:09:16;5.97;;;2.58;;
71475;SDS011;59286;59.274;17.974;2023-04-16T07:11:42;6.28;;;2.60;;
71475;SDS011;59286;59.274;17.974;2023-04-16T07:14:08;6.47;;;2.92;;
71475;SDS011;59286;59.274;17.974;2023-04-16T07:16:34;6.80;;;2.88;;
71475;SDS011;59286;59.274;17.974;2023-04-16T07:19:01;7.00;;;2.33;;
71475;SDS011;59286;59.274;17.974;2023-04-16T07:21:26;5.60;;;2.72;;
71475;SDS011;59286;59.274;17.974;2023-04-16T07:23:52;3.85;;;2.50;;
71475;SDS011;59286;59.274;17.974;2023-04-16T07:26:17;5.20;;;2.60;;
71475;SDS011;59286;59.274;17.974;2023-04-16T07:28:43;7.53;;;2.38;;
71475;SDS011;59286;59.274;17.974;2023-04-16T07:31:08;3.88;;;2.53;;
71475;SDS011;59286;59.274;17.974;2023-04-16T07:33:33;5.68;;;2.70;;
71475;SDS011;59286;59.274;17.974;2023-04-16T07:35:59;6.65;;;2.50;;
71475;SDS011;59286;59.274;17.974;2023-04-16T07:38:24;4.60;;;2.50;;
71475;SDS011;59286;59.274;17.974;2023-04-16T07:40:50;8.38;;;2.60;;
71475;SDS011;59286;59.274;17.974;2023-04-16T07:43:15;5.85;;;2.40;;
71475;SDS011;59286;59.274;17.974;2023-04-16T07:45:40;5.90;;;2.50;;
71475;SDS011;59286;59.274;17.974;2023-04-16T07:48:06;7.65;;;2.75;;
71475;SDS011;59286;59.274;17.974;2023-04-16T07:50:31;4.85;;;2.80;;
71475;SDS011;59286;59.274;17.974;2023-04-16T07:52:57;5.10;;;2.60;;
71475;SDS011;59286;59.274;17.974;2023-04-16T07:55:22;6.72;;;2.30;;
71475;SDS011;59286;59.274;17.974;2023-04-16T07:57:47;10.90;;;3.20;;
71475;SDS011;59286;59.274;17.974;2023-04-16T08:00:13;5.80;;;2.78;;
71475;SDS011;59286;59.274;17.974;2023-04-16T08:02:38;6.47;;;2.72;;
71475;SDS011;59286;59.274;17.974;2023-04-16T08:05:05;6.60;;;2.30;;
71475;SDS011;59286;59.274;17.974;2023-04-16T08:07:30;7.30;;;2.45;;
71475;SDS011;59286;59.274;17.974;2023-04-16T08:09:56;7.43;;;2.53;;
71475;SDS011;59286;59.274;17.974;2023-04-16T08:12:21;3.72;;;2.58;;
71475;SDS011;59286;59.274;17.974;2023-04-16T08:14:47;8.52;;;2.65;;
71475;SDS011;59286;59.274;17.974;2023-04-16T08:17:13;6.82;;;2.50;;
71475;SDS011;59286;59.274;17.974;2023-04-16T08:19:39;5.45;;;2.88;;
71475;SDS011;59286;59.274;17.974;2023-04-16T08:22:04;5.25;;;2.70;;
71475;SDS011;59286;59.274;17.974;2023-04-16T08:24:30;4.55;;;2.53;;
71475;SDS011;59286;59.274;17.974;2023-04-16T08:26:55;7.00;;;2.50;;
71475;SDS011;59286;59.274;17.974;2023-04-16T08:29:21;5.88;;;2.80;;
71475;SDS011;59286;59.274;17.974;2023-04-16T08:31:49;4.55;;;2.60;;
71475;SDS011;59286;59.274;17.974;2023-04-16T08:34:14;6.68;;;2.60;;
71475;SDS011;59286;59.274;17.974;2023-04-16T08:36:39;14.85;;;2.38;;
71475;SDS011;59286;59.274;17.974;2023-04-16T08:39:05;6.78;;;2.70;;
71475;SDS011;59286;59.274;17.974;2023-04-16T08:41:31;6.35;;;2.63;;
71475;SDS011;59286;59.274;17.974;2023-04-16T08:43:59;4.88;;;2.17;;
71475;SDS011;59286;59.274;17.974;2023-04-16T08:46:25;4.88;;;2.70;;
71475;SDS011;59286;59.274;17.974;2023-04-16T08:48:52;6.13;;;2.60;;
71475;SDS011;59286;59.274;17.974;2023-04-16T08:51:22;7.43;;;2.90;;
71475;SDS011;59286;59.274;17.974;2023-04-16T08:53:51;9.27;;;2.83;;
71475;SDS011;59286;59.274;17.974;2023-04-16T08:56:22;7.15;;;2.67;;
71475;SDS011;59286;59.274;17.974;2023-04-16T08:58:48;8.02;;;2.88;;
71475;SDS011;59286;59.274;17.974;2023-04-16T09:01:15;5.47;;;2.60;;
71475;SDS011;59286;59.274;17.974;2023-04-16T09:03:42;5.85;;;2.58;;
71475;SDS011;59286;59.274;17.974;2023-04-16T09:06:11;7.10;;;2.70;;
71475;SDS011;59286;59.274;17.974;2023-04-16T09:08:37;6.47;;;2.65;;
71475;SDS011;59286;59.274;17.974;2023-04-16T09:11:04;10.05;;;2.90;;
71475;SDS011;59286;59.274;17.974;2023-04-16T09:13:30;12.68;;;3.03;;
71475;SDS011;59286;59.274;17.974;2023-04-16T09:15:56;7.53;;;2.50;;
71475;SDS011;59286;59.274;17.974;2023-04-16T09:18:22;10.45;;;2.80;;
71475;SDS011;59286;59.274;17.974;2023-04-16T09:20:48;9.38;;;2.65;;
71475;SDS011;59286;59.274;17.974;2023-04-16T09:23:15;7.13;;;2.90;;
71475;SDS011;59286;59.274;17.974;2023-04-16T09:25:40;12.00;;;3.53;;
71475;SDS011;59286;59.274;17.974;2023-04-16T09:28:05;8.45;;;2.78;;
71475;SDS011;59286;59.274;17.974;2023-04-16T09:30:31;6.72;;;2.50;;
71475;SDS011;59286;59.274;17.974;2023-04-16T09:33:39;4.60;;;2.63;;
71475;SDS011;59286;59.274;17.974;2023-04-16T09:35:49;7.32;;;2.53;;
71475;SDS011;59286;59.274;17.974;2023-04-16T09:38:18;4.97;;;2.53;;
71475;SDS011;59286;59.274;17.974;2023-04-16T09:40:44;5.03;;;2.55;;
71475;SDS011;59286;59.274;17.974;2023-04-16T09:45:50;10.32;;;2.65;;
71475;SDS011;59286;59.274;17.974;2023-04-16T09:48:35;7.70;;;2.85;;
71475;SDS011;59286;59.274;17.974;2023-04-16T09:51:00;6.10;;;3.05;;
71475;SDS011;59286;59.274;17.974;2023-04-16T09:53:27;6.60;;;2.88;;
71475;SDS011;59286;59.274;17.974;2023-04-16T09:55:56;8.77;;;2.78;;
71475;SDS011;59286;59.274;17.974;2023-04-16T09:58:23;5.38;;;2.60;;
71475;SDS011;59286;59.274;17.974;2023-04-16T10:00:48;7.60;;;3.03;;
71475;SDS011;59286;59.274;17.974;2023-04-16T10:03:19;5.78;;;2.78;;
71475;SDS011;59286;59.274;17.974;2023-04-16T10:05:53;6.18;;;3.10;;
71475;SDS011;59286;59.274;17.974;2023-04-16T10:08:18;5.57;;;2.58;;
71475;SDS011;59286;59.274;17.974;2023-04-16T10:10:44;6.57;;;2.63;;
71475;SDS011;59286;59.274;17.974;2023-04-16T10:13:09;4.75;;;2.55;;
71475;SDS011;59286;59.274;17.974;2023-04-16T10:15:36;5.95;;;2.70;;
71475;SDS011;59286;59.274;17.974;2023-04-16T10:18:02;5.82;;;2.78;;
71475;SDS011;59286;59.274;17.974;2023-04-16T10:20:29;6.60;;;2.70;;
71475;SDS011;59286;59.274;17.974;2023-04-16T10:22:55;4.43;;;2.60;;
71475;SDS011;59286;59.274;17.974;2023-04-16T10:25:21;5.90;;;2.38;;
71475;SDS011;59286;59.274;17.974;2023-04-16T10:27:47;5.85;;;2.40;;
71475;SDS011;59286;59.274;17.974;2023-04-16T10:30:14;7.72;;;3.08;;
71475;SDS011;59286;59.274;17.974;2023-04-16T10:32:40;3.40;;;2.38;;
71475;SDS011;59286;59.274;17.974;2023-04-16T10:35:06;4.97;;;2.50;;
71475;SDS011;59286;59.274;17.974;2023-04-16T10:37:32;6.65;;;2.40;;
71475;SDS011;59286;59.274;17.974;2023-04-16T10:39:58;7.00;;;2.47;;
71475;SDS011;59286;59.274;17.974;2023-04-16T10:42:24;5.35;;;3.08;;
71475;SDS011;59286;59.274;17.974;2023-04-16T10:44:50;7.65;;;2.78;;
71475;SDS011;59286;59.274;17.974;2023-04-16T10:47:15;4.68;;;2.88;;
71475;SDS011;59286;59.274;17.974;2023-04-16T10:49:44;7.60;;;2.58;;
71475;SDS011;59286;59.274;17.974;2023-04-16T10:52:12;4.82;;;2.58;;
71475;SDS011;59286;59.274;17.974;2023-04-16T10:54:42;4.88;;;2.70;;
71475;SDS011;59286;59.274;17.974;2023-04-16T10:57:08;8.02;;;2.72;;
71475;SDS011;59286;59.274;17.974;2023-04-16T10:59:37;4.47;;;2.60;;
71475;SDS011;59286;59.274;17.974;2023-04-16T11:02:07;7.38;;;3.00;;
71475;SDS011;59286;59.274;17.974;2023-04-16T11:04:37;4.65;;;2.60;;
71475;SDS011;59286;59.274;17.974;2023-04-16T11:14:49;4.65;;;2.28;;
71475;SDS011;59286;59.274;17.974;2023-04-16T11:17:17;14.50;;;2.88;;
71475;SDS011;59286;59.274;17.974;2023-04-16T11:19:43;5.70;;;2.58;;
71475;SDS011;59286;59.274;17.974;2023-04-16T11:22:10;8.95;;;2.65;;
71475;SDS011;59286;59.274;17.974;2023-04-16T11:24:37;9.65;;;2.47;;
71475;SDS011;59286;59.274;17.974;2023-04-16T11:27:04;7.95;;;2.40;;
71475;SDS011;59286;59.274;17.974;2023-04-16T11:29:30;8.30;;;2.80;;
71475;SDS011;59286;59.274;17.974;2023-04-16T11:31:55;9.23;;;2.42;;
71475;SDS011;59286;59.274;17.974;2023-04-16T11:34:20;8.82;;;2.50;;
71475;SDS011;59286;59.274;17.974;2023-04-16T11:36:46;5.60;;;2.38;;
71475;SDS011;59286;59.274;17.974;2023-04-16T11:39:14;4.82;;;2.25;;
71475;SDS011;59286;59.274;17.974;2023-04-16T11:41:48;4.90;;;2.33;;
71475;SDS011;59286;59.274;17.974;2023-04-16T11:44:19;7.85;;;2.78;;
71475;SDS011;59286;59.274;17.974;2023-04-16T11:46:45;7.05;;;2.45;;
71475;SDS011;59286;59.274;17.974;2023-04-16T11:49:11;8.80;;;2.90;;
71475;SDS011;59286;59.274;17.974;2023-04-16T11:51:40;12.35;;;2.67;;
71475;SDS011;59286;59.274;17.974;2023-04-16T11:54:06;5.00;;;2.22;;
71475;SDS011;59286;59.274;17.974;2023-04-16T11:56:33;3.95;;;2.40;;
71475;SDS011;59286;59.274;17.974;2023-04-16T11:59:10;8.07;;;2.97;;
71475;SDS011;59286;59.274;17.974;2023-04-16T12:01:37;4.30;;;2.42;;
71475;SDS011;59286;59.274;17.974;2023-04-16T12:04:04;6.07;;;2.50;;
71475;SDS011;59286;59.274;17.974;2023-04-16T12:06:30;6.47;;;2.70;;
71475;SDS011;59286;59.274;17.974;2023-04-16T12:08:59;6.88;;;2.45;;
71475;SDS011;59286;59.274;17.974;2023-04-16T12:11:40;6.25;;;2.83;;
71475;SDS011;59286;59.274;17.974;2023-04-16T12:14:10;10.68;;;2.85;;
71475;SDS011;59286;59.274;17.974;2023-04-16T12:16:36;8.02;;;2.70;;
71475;SDS011;59286;59.274;17.974;2023-04-16T12:19:02;7.97;;;2.90;;
71475;SDS011;59286;59.274;17.974;2023-04-16T12:21:37;5.40;;;3.00;;
71475;SDS011;59286;59.274;17.974;2023-04-16T12:24:03;6.43;;;2.63;;
71475;SDS011;59286;59.274;17.974;2023-04-16T12:26:38;6.38;;;2.50;;
71475;SDS011;59286;59.274;17.974;2023-04-16T12:29:25;6.43;;;2.67;;
71475;SDS011;59286;59.274;17.974;2023-04-16T12:31:52;5.57;;;2.67;;
71475;SDS011;59286;59.274;17.974;2023-04-16T12:34:19;10.32;;;3.00;;
71475;SDS011;59286;59.274;17.974;2023-04-16T12:36:45;7.72;;;2.95;;
71475;SDS011;59286;59.274;17.974;2023-04-16T12:39:12;6.15;;;2.55;;
71475;SDS011;59286;59.274;17.974;2023-04-16T12:41:40;5.57;;;2.35;;
71475;SDS011;59286;59.274;17.974;2023-04-16T12:44:07;7.45;;;3.00;;
71475;SDS011;59286;59.274;17.974;2023-04-16T12:46:35;6.15;;;2.95;;
71475;SDS011;59286;59.274;17.974;2023-04-16T12:49:02;7.30;;;2.72;;
71475;SDS011;59286;59.274;17.974;2023-04-16T12:51:27;6.40;;;2.92;;
71475;SDS011;59286;59.274;17.974;2023-04-16T12:53:53;12.13;;;3.40;;
71475;SDS011;59286;59.274;17.974;2023-04-16T12:56:18;7.22;;;2.92;;
71475;SDS011;59286;59.274;17.974;2023-04-16T12:58:44;5.15;;;3.00;;
71475;SDS011;59286;59.274;17.974;2023-04-16T13:01:09;7.30;;;3.45;;
71475;SDS011;59286;59.274;17.974;2023-04-16T13:03:36;6.25;;;3.15;;
71475;SDS011;59286;59.274;17.974;2023-04-16T13:06:01;6.15;;;2.70;;
71475;SDS011;59286;59.274;17.974;2023-04-16T13:08:28;3.25;;;2.60;;
71475;SDS011;59286;59.274;17.974;2023-04-16T13:10:53;9.57;;;2.90;;
71475;SDS011;59286;59.274;17.974;2023-04-16T13:13:19;5.70;;;2.50;;
71475;SDS011;59286;59.274;17.974;2023-04-16T13:15:44;9.00;;;2.75;;
71475;SDS011;59286;59.274;17.974;2023-04-16T13:18:10;4.85;;;2.50;;
71475;SDS011;59286;59.274;17.974;2023-04-16T13:20:35;4.30;;;2.30;;
71475;SDS011;59286;59.274;17.974;2023-04-16T13:23:01;5.93;;;2.40;;
71475;SDS011;59286;59.274;17.974;2023-04-16T13:25:32;9.55;;;2.50;;
71475;SDS011;59286;59.274;17.974;2023-04-16T13:27:59;6.65;;;2.70;;
71475;SDS011;59286;59.274;17.974;2023-04-16T13:30:24;9.95;;;2.58;;
71475;SDS011;59286;59.274;17.974;2023-04-16T13:32:50;7.07;;;2.83;;
71475;SDS011;59286;59.274;17.974;2023-04-16T13:35:15;7.13;;;3.08;;
71475;SDS011;59286;59.274;17.974;2023-04-16T13:37:41;7.18;;;2.75;;
71475;SDS011;59286;59.274;17.974;2023-04-16T13:40:06;4.95;;;2.58;;
71475;SDS011;59286;59.274;17.974;2023-04-16T13:42:32;7.13;;;2.92;;
71475;SDS011;59286;59.274;17.974;2023-04-16T13:44:57;5.95;;;2.45;;
71475;SDS011;59286;59.274;17.974;2023-04-16T13:47:23;5.25;;;2.50;;
71475;SDS011;59286;59.274;17.974;2023-04-16T13:49:48;10.70;;;2.30;;
71475;SDS011;59286;59.274;17.974;2023-04-16T13:52:14;6.28;;;2.63;;
71475;SDS011;59286;59.274;17.974;2023-04-16T13:54:39;7.60;;;2.67;;
71475;SDS011;59286;59.274;17.974;2023-04-16T13:57:05;5.38;;;2.45;;
71475;SDS011;59286;59.274;17.974;2023-04-16T13:59:30;8.23;;;2.67;;
71475;SDS011;59286;59.274;17.974;2023-04-16T14:01:56;4.07;;;2.33;;
71475;SDS011;59286;59.274;17.974;2023-04-16T14:04:21;4.82;;;2.33;;
71475;SDS011;59286;59.274;17.974;2023-04-16T14:06:47;5.63;;;2.67;;
71475;SDS011;59286;59.274;17.974;2023-04-16T14:09:13;9.60;;;2.58;;
71475;SDS011;59286;59.274;17.974;2023-04-16T14:11:38;9.88;;;2.75;;
71475;SDS011;59286;59.274;17.974;2023-04-16T14:14:04;5.15;;;2.75;;
71475;SDS011;59286;59.274;17.974;2023-04-16T14:16:29;5.30;;;2.60;;
71475;SDS011;59286;59.274;17.974;2023-04-16T14:18:55;6.13;;;2.60;;
71475;SDS011;59286;59.274;17.974;2023-04-16T14:21:20;6.95;;;2.42;;
71475;SDS011;59286;59.274;17.974;2023-04-16T14:23:46;9.32;;;2.60;;
71475;SDS011;59286;59.274;17.974;2023-04-16T14:26:11;4.20;;;2.33;;
71475;SDS011;59286;59.274;17.974;2023-04-16T14:28:36;8.95;;;3.53;;
71475;SDS011;59286;59.274;17.974;2023-04-16T14:31:03;9.57;;;2.53;;
71475;SDS011;59286;59.274;17.974;2023-04-16T14:33:28;7.78;;;2.50;;
71475;SDS011;59286;59.274;17.974;2023-04-16T14:35:53;5.85;;;2.30;;
71475;SDS011;59286;59.274;17.974;2023-04-16T14:38:19;9.07;;;2.30;;